sensor_id;sensor_type;location;lat;lon;timestamp;pressure;altitude;pressure_sealevel;temperature;humidity
75895;BME280;64573;50.328;15.014;2023-07-08T00:02:09;99385.97;;;18.85;51.73
75895;BME280;64573;50.328;15.014;2023-07-08T00:04:36;99381.66;;;18.77;51.94
75895;BME280;64573;50.328;15.014;2023-07-08T00:07:02;99377.09;;;18.71;52.57
75895;BME280;64573;50.328;15.014;2023-07-08T00:09:27;99384.19;;;18.72;52.12
75895;BME280;64573;50.328;15.014;2023-07-08T00:11:52;99374.16;;;18.72;51.93
75895;BME280;64573;50.328;15.014;2023-07-08T00:14:18;99378.59;;;18.67;52.57
75895;BME280;64573;50.328;15.014;2023-07-08T00:16:43;99378.44;;;18.62;52.02
75895;BME280;64573;50.328;15.014;2023-07-08T00:19:09;99384.88;;;18.61;52.15
75895;BME280;64573;50.328;15.014;2023-07-08T00:21:35;99382.41;;;18.59;52.43
75895;BME280;64573;50.328;15.014;2023-07-08T00:24:01;99396.31;;;18.44;53.13
75895;BME280;64573;50.328;15.014;2023-07-08T00:26:28;99384.09;;;18.35;53.21
75895;BME280;64573;50.328;15.014;2023-07-08T00:28:55;99393.56;;;18.26;53.37
75895;BME280;64573;50.328;15.014;2023-07-08T00:31:22;99400.56;;;18.40;52.62
75895;BME280;64573;50.328;15.014;2023-07-08T00:33:49;99399.56;;;18.35;52.94
75895;BME280;64573;50.328;15.014;2023-07-08T00:36:16;99400.66;;;18.27;53.57
75895;BME280;64573;50.328;15.014;2023-07-08T00:38:42;99403.16;;;18.29;53.11
75895;BME280;64573;50.328;15.014;2023-07-08T00:41:20;99396.94;;;18.22;53.04
75895;BME280;64573;50.328;15.014;2023-07-08T00:43:53;99397.22;;;18.13;53.49
75895;BME280;64573;50.328;15.014;2023-07-08T00:49:26;99401.72;;;18.26;52.70
75895;BME280;64573;50.328;15.014;2023-07-08T00:51:53;99402.91;;;18.30;51.98
75895;BME280;64573;50.328;15.014;2023-07-08T00:54:19;99395.59;;;18.31;51.78
75895;BME280;64573;50.328;15.014;2023-07-08T00:56:49;99403.19;;;18.22;51.60
75895;BME280;64573;50.328;15.014;2023-07-08T01:01:49;99405.06;;;18.22;52.56
75895;BME280;64573;50.328;15.014;2023-07-08T01:04:22;99405.13;;;18.15;52.61
75895;BME280;64573;50.328;15.014;2023-07-08T01:06:51;99402.06;;;18.05;53.15
75895;BME280;64573;50.328;15.014;2023-07-08T01:09:25;99394.19;;;17.97;53.62
75895;BME280;64573;50.328;15.014;2023-07-08T01:11:53;99391.88;;;18.00;53.79
75895;BME280;64573;50.328;15.014;2023-07-08T01:14:20;99394.50;;;17.82;54.30
75895;BME280;64573;50.328;15.014;2023-07-08T01:16:46;99389.22;;;17.87;53.79
75895;BME280;64573;50.328;15.014;2023-07-08T01:19:16;99388.97;;;17.95;53.79
75895;BME280;64573;50.328;15.014;2023-07-08T01:21:57;99388.63;;;17.85;54.44
75895;BME280;64573;50.328;15.014;2023-07-08T01:24:25;99383.06;;;17.73;55.09
75895;BME280;64573;50.328;15.014;2023-07-08T01:26:52;99387.03;;;17.71;54.96
75895;BME280;64573;50.328;15.014;2023-07-08T01:29:18;99386.47;;;17.55;55.94
75895;BME280;64573;50.328;15.014;2023-07-08T01:31:44;99384.34;;;17.64;55.53
75895;BME280;64573;50.328;15.014;2023-07-08T01:34:14;99382.22;;;17.73;55.15
75895;BME280;64573;50.328;15.014;2023-07-08T01:36:44;99374.31;;;17.64;55.78
75895;BME280;64573;50.328;15.014;2023-07-08T01:39:20;99371.03;;;17.56;55.74
75895;BME280;64573;50.328;15.014;2023-07-08T01:41:46;99369.41;;;17.48;56.05
75895;BME280;64573;50.328;15.014;2023-07-08T01:44:22;99370.81;;;17.57;55.73
75895;BME280;64573;50.328;15.014;2023-07-08T01:46:50;99374.09;;;17.66;55.63
75895;BME280;64573;50.328;15.014;2023-07-08T01:49:16;99368.56;;;17.48;56.35
75895;BME280;64573;50.328;15.014;2023-07-08T01:51:42;99376.09;;;17.46;56.33
75895;BME280;64573;50.328;15.014;2023-07-08T01:54:07;99369.19;;;17.50;55.82
75895;BME280;64573;50.328;15.014;2023-07-08T01:56:32;99371.47;;;17.53;56.03
75895;BME280;64573;50.328;15.014;2023-07-08T01:58:58;99378.00;;;17.39;56.46
75895;BME280;64573;50.328;15.014;2023-07-08T02:01:23;99360.47;;;17.41;56.47
75895;BME280;64573;50.328;15.014;2023-07-08T02:03:48;99369.00;;;17.38;56.32
75895;BME280;64573;50.328;15.014;2023-07-08T02:06:14;99367.97;;;17.46;56.08
75895;BME280;64573;50.328;15.014;2023-07-08T02:08:39;99361.91;;;17.44;55.90
75895;BME280;64573;50.328;15.014;2023-07-08T02:11:04;99358.56;;;17.48;55.63
75895;BME280;64573;50.328;15.014;2023-07-08T02:13:30;99362.47;;;17.52;55.88
75895;BME280;64573;50.328;15.014;2023-07-08T02:15:55;99365.16;;;17.59;55.41
75895;BME280;64573;50.328;15.014;2023-07-08T02:18:20;99364.56;;;17.57;55.14
75895;BME280;64573;50.328;15.014;2023-07-08T02:20:50;99359.16;;;17.50;55.60
75895;BME280;64573;50.328;15.014;2023-07-08T02:23:15;99365.88;;;17.41;55.78
75895;BME280;64573;50.328;15.014;2023-07-08T02:25:41;99355.69;;;17.36;55.92
75895;BME280;64573;50.328;15.014;2023-07-08T02:28:06;99354.81;;;17.43;55.84
75895;BME280;64573;50.328;15.014;2023-07-08T02:30:31;99352.34;;;17.41;55.87
75895;BME280;64573;50.328;15.014;2023-07-08T02:32:57;99355.06;;;17.34;56.26
75895;BME280;64573;50.328;15.014;2023-07-08T02:35:27;99343.38;;;17.41;55.89
75895;BME280;64573;50.328;15.014;2023-07-08T02:37:55;99350.69;;;17.40;55.69
75895;BME280;64573;50.328;15.014;2023-07-08T02:40:21;99344.16;;;17.48;55.30
75895;BME280;64573;50.328;15.014;2023-07-08T02:42:47;99341.22;;;17.49;55.30
75895;BME280;64573;50.328;15.014;2023-07-08T02:45:13;99343.69;;;17.57;55.09
75895;BME280;64573;50.328;15.014;2023-07-08T02:47:39;99341.19;;;17.56;55.13
75895;BME280;64573;50.328;15.014;2023-07-08T02:50:05;99334.91;;;17.62;54.90
75895;BME280;64573;50.328;15.014;2023-07-08T02:52:31;99333.66;;;17.58;54.93
75895;BME280;64573;50.328;15.014;2023-07-08T02:54:56;99335.56;;;17.57;54.70
75895;BME280;64573;50.328;15.014;2023-07-08T02:57:21;99329.72;;;17.60;54.95
75895;BME280;64573;50.328;15.014;2023-07-08T02:59:47;99338.81;;;17.73;54.31
75895;BME280;64573;50.328;15.014;2023-07-08T03:02:12;99338.63;;;17.68;54.44
75895;BME280;64573;50.328;15.014;2023-07-08T03:04:37;99344.88;;;17.68;54.23
75895;BME280;64573;50.328;15.014;2023-07-08T03:07:05;99349.31;;;17.62;54.17
75895;BME280;64573;50.328;15.014;2023-07-08T03:09:31;99346.56;;;17.69;54.12
75895;BME280;64573;50.328;15.014;2023-07-08T03:11:57;99335.94;;;17.68;54.13
75895;BME280;64573;50.328;15.014;2023-07-08T03:14:23;99351.16;;;17.69;53.99
75895;BME280;64573;50.328;15.014;2023-07-08T03:16:48;99344.88;;;17.68;53.94
75895;BME280;64573;50.328;15.014;2023-07-08T03:19:13;99348.44;;;17.69;54.12
75895;BME280;64573;50.328;15.014;2023-07-08T03:21:40;99347.16;;;17.78;53.72
75895;BME280;64573;50.328;15.014;2023-07-08T03:24:09;99348.56;;;17.80;53.66
75895;BME280;64573;50.328;15.014;2023-07-08T03:26:36;99358.50;;;17.93;52.94
75895;BME280;64573;50.328;15.014;2023-07-08T03:29:02;99361.31;;;18.11;52.35
75895;BME280;64573;50.328;15.014;2023-07-08T03:31:27;99359.81;;;18.15;52.28
75895;BME280;64573;50.328;15.014;2023-07-08T03:33:53;99355.56;;;18.26;52.04
75895;BME280;64573;50.328;15.014;2023-07-08T03:36:18;99367.25;;;18.27;52.21
75895;BME280;64573;50.328;15.014;2023-07-08T03:38:57;99359.88;;;18.34;51.55
75895;BME280;64573;50.328;15.014;2023-07-08T03:41:23;99359.59;;;18.42;51.23
75895;BME280;64573;50.328;15.014;2023-07-08T03:43:49;99364.28;;;18.53;51.19
75895;BME280;64573;50.328;15.014;2023-07-08T03:46:19;99369.28;;;18.56;50.89
75895;BME280;64573;50.328;15.014;2023-07-08T03:48:46;99371.28;;;18.67;50.53
75895;BME280;64573;50.328;15.014;2023-07-08T03:51:21;99369.03;;;18.83;50.33
75895;BME280;64573;50.328;15.014;2023-07-08T03:53:47;99370.31;;;18.80;49.95
75895;BME280;64573;50.328;15.014;2023-07-08T03:56:13;99370.41;;;18.92;49.85
75895;BME280;64573;50.328;15.014;2023-07-08T03:58:39;99370.56;;;18.97;49.83
75895;BME280;64573;50.328;15.014;2023-07-08T04:01:05;99375.56;;;19.00;49.84
75895;BME280;64573;50.328;15.014;2023-07-08T04:03:34;99375.25;;;19.08;49.43
75895;BME280;64573;50.328;15.014;2023-07-08T04:06:00;99374.88;;;19.23;48.78
75895;BME280;64573;50.328;15.014;2023-07-08T04:08:25;99373.72;;;19.31;48.93
75895;BME280;64573;50.328;15.014;2023-07-08T04:10:51;99376.75;;;19.22;48.72
75895;BME280;64573;50.328;15.014;2023-07-08T04:13:16;99381.72;;;19.44;48.70
75895;BME280;64573;50.328;15.014;2023-07-08T04:15:41;99367.97;;;19.39;48.29
75895;BME280;64573;50.328;15.014;2023-07-08T04:18:07;99379.16;;;19.49;48.33
75895;BME280;64573;50.328;15.014;2023-07-08T04:20:32;99382.63;;;19.56;48.23
75895;BME280;64573;50.328;15.014;2023-07-08T04:22:58;99394.63;;;19.67;47.73
75895;BME280;64573;50.328;15.014;2023-07-08T04:25:23;99388.59;;;19.95;47.24
75895;BME280;64573;50.328;15.014;2023-07-08T04:27:50;99398.06;;;20.04;47.03
75895;BME280;64573;50.328;15.014;2023-07-08T04:30:22;99399.47;;;19.95;46.77
75895;BME280;64573;50.328;15.014;2023-07-08T04:32:49;99392.44;;;20.17;46.77
75895;BME280;64573;50.328;15.014;2023-07-08T04:35:15;99396.59;;;20.31;45.77
75895;BME280;64573;50.328;15.014;2023-07-08T04:37:40;99408.28;;;20.50;45.77
75895;BME280;64573;50.328;15.014;2023-07-08T04:40:14;99408.75;;;20.82;45.28
75895;BME280;64573;50.328;15.014;2023-07-08T04:45:09;99409.34;;;20.73;45.56
75895;BME280;64573;50.328;15.014;2023-07-08T04:47:35;99395.25;;;20.87;44.91
75895;BME280;64573;50.328;15.014;2023-07-08T04:50:01;99399.47;;;21.07;44.04
75895;BME280;64573;50.328;15.014;2023-07-08T04:52:26;99392.75;;;21.09;44.47
75895;BME280;64573;50.328;15.014;2023-07-08T04:54:51;99401.78;;;21.50;43.53
75895;BME280;64573;50.328;15.014;2023-07-08T04:57:17;99403.41;;;21.63;43.06
75895;BME280;64573;50.328;15.014;2023-07-08T04:59:42;99392.47;;;21.34;43.34
75895;BME280;64573;50.328;15.014;2023-07-08T05:02:07;99404.53;;;21.50;43.39
75895;BME280;64573;50.328;15.014;2023-07-08T05:04:33;99406.56;;;22.00;42.11
75895;BME280;64573;50.328;15.014;2023-07-08T05:06:58;99407.19;;;22.02;41.75
75895;BME280;64573;50.328;15.014;2023-07-08T05:09:23;99395.00;;;22.38;41.01
75895;BME280;64573;50.328;15.014;2023-07-08T05:11:51;99407.00;;;22.54;41.13
75895;BME280;64573;50.328;15.014;2023-07-08T05:14:16;99411.09;;;21.94;41.63
75895;BME280;64573;50.328;15.014;2023-07-08T05:16:42;99411.41;;;22.38;41.14
75895;BME280;64573;50.328;15.014;2023-07-08T05:19:07;99424.56;;;22.92;40.26
75895;BME280;64573;50.328;15.014;2023-07-08T05:21:33;99415.25;;;23.09;39.73
75895;BME280;64573;50.328;15.014;2023-07-08T05:24:04;99427.03;;;22.60;40.79
75895;BME280;64573;50.328;15.014;2023-07-08T05:26:29;99429.31;;;22.96;39.79
75895;BME280;64573;50.328;15.014;2023-07-08T05:28:55;99424.06;;;23.55;38.42
75895;BME280;64573;50.328;15.014;2023-07-08T05:31:20;99425.03;;;23.05;39.89
75895;BME280;64573;50.328;15.014;2023-07-08T05:33:46;99434.66;;;23.47;38.34
75895;BME280;64573;50.328;15.014;2023-07-08T05:36:11;99424.16;;;23.22;38.91
75895;BME280;64573;50.328;15.014;2023-07-08T05:38:36;99426.22;;;23.31;38.80
75895;BME280;64573;50.328;15.014;2023-07-08T05:41:02;99423.22;;;23.99;37.79
75895;BME280;64573;50.328;15.014;2023-07-08T05:43:27;99427.72;;;23.61;38.55
75895;BME280;64573;50.328;15.014;2023-07-08T05:45:58;99426.75;;;24.21;36.86
75895;BME280;64573;50.328;15.014;2023-07-08T05:48:24;99427.28;;;23.96;37.39
75895;BME280;64573;50.328;15.014;2023-07-08T05:50:49;99433.13;;;24.32;37.58
75895;BME280;64573;50.328;15.014;2023-07-08T05:53:14;99420.06;;;24.39;37.47
75895;BME280;64573;50.328;15.014;2023-07-08T05:55:43;99423.84;;;24.33;37.52
75895;BME280;64573;50.328;15.014;2023-07-08T05:58:09;99427.69;;;24.64;36.64
75895;BME280;64573;50.328;15.014;2023-07-08T06:00:35;99432.97;;;24.75;36.95
75895;BME280;64573;50.328;15.014;2023-07-08T06:03:00;99433.66;;;25.30;34.72
75895;BME280;64573;50.328;15.014;2023-07-08T06:05:26;99429.81;;;26.04;34.05
75895;BME280;64573;50.328;15.014;2023-07-08T06:07:51;99441.16;;;26.43;33.28
75895;BME280;64573;50.328;15.014;2023-07-08T06:10:16;99445.28;;;26.30;34.25
75895;BME280;64573;50.328;15.014;2023-07-08T06:12:42;99443.09;;;26.58;32.94
75895;BME280;64573;50.328;15.014;2023-07-08T06:15:07;99442.78;;;26.29;33.46
75895;BME280;64573;50.328;15.014;2023-07-08T06:17:33;99444.50;;;26.60;33.39
75895;BME280;64573;50.328;15.014;2023-07-08T06:19:58;99443.94;;;27.04;32.18
75895;BME280;64573;50.328;15.014;2023-07-08T06:22:24;99447.53;;;26.54;32.65
75895;BME280;64573;50.328;15.014;2023-07-08T06:24:49;99442.81;;;27.20;32.31
75895;BME280;64573;50.328;15.014;2023-07-08T06:29:40;99441.41;;;26.31;32.25
75895;BME280;64573;50.328;15.014;2023-07-08T06:32:06;99443.66;;;26.39;32.06
75895;BME280;64573;50.328;15.014;2023-07-08T06:34:31;99440.09;;;25.61;33.27
75895;BME280;64573;50.328;15.014;2023-07-08T06:36:57;99441.03;;;25.82;33.29
75895;BME280;64573;50.328;15.014;2023-07-08T06:39:22;99435.13;;;26.77;31.77
75895;BME280;64573;50.328;15.014;2023-07-08T06:41:47;99437.63;;;26.63;32.13
75895;BME280;64573;50.328;15.014;2023-07-08T06:44:13;99423.84;;;26.88;31.57
75895;BME280;64573;50.328;15.014;2023-07-08T06:46:38;99435.34;;;27.26;32.65
75895;BME280;64573;50.328;15.014;2023-07-08T06:49:03;99433.44;;;26.25;32.39
75895;BME280;64573;50.328;15.014;2023-07-08T06:51:29;99435.66;;;27.19;31.04
75895;BME280;64573;50.328;15.014;2023-07-08T06:53:54;99428.38;;;27.54;29.82
75895;BME280;64573;50.328;15.014;2023-07-08T06:56:20;99428.28;;;28.24;29.39
75895;BME280;64573;50.328;15.014;2023-07-08T06:58:45;99428.16;;;28.00;29.85
75895;BME280;64573;50.328;15.014;2023-07-08T07:01:11;99423.34;;;27.66;31.09
75895;BME280;64573;50.328;15.014;2023-07-08T07:03:37;99428.91;;;27.61;30.04
75895;BME280;64573;50.328;15.014;2023-07-08T07:06:03;99428.91;;;27.56;31.50
75895;BME280;64573;50.328;15.014;2023-07-08T07:08:28;99427.19;;;28.25;29.63
75895;BME280;64573;50.328;15.014;2023-07-08T07:10:53;99425.28;;;28.94;28.96
75895;BME280;64573;50.328;15.014;2023-07-08T07:13:19;99418.03;;;29.75;26.99
75895;BME280;64573;50.328;15.014;2023-07-08T07:15:44;99421.91;;;30.49;25.76
75895;BME280;64573;50.328;15.014;2023-07-08T07:18:09;99422.06;;;30.58;25.76
75895;BME280;64573;50.328;15.014;2023-07-08T07:20:37;99425.25;;;30.32;26.50
75895;BME280;64573;50.328;15.014;2023-07-08T07:23:02;99417.66;;;30.89;25.95
75895;BME280;64573;50.328;15.014;2023-07-08T07:25:28;99423.81;;;30.86;25.72
75895;BME280;64573;50.328;15.014;2023-07-08T07:27:53;99426.34;;;31.43;25.13
75895;BME280;64573;50.328;15.014;2023-07-08T07:30:18;99417.34;;;31.37;24.84
75895;BME280;64573;50.328;15.014;2023-07-08T07:32:44;99426.38;;;31.84;24.00
75895;BME280;64573;50.328;15.014;2023-07-08T07:35:11;99423.50;;;31.62;24.29
75895;BME280;64573;50.328;15.014;2023-07-08T07:37:41;99413.72;;;31.78;24.93
75895;BME280;64573;50.328;15.014;2023-07-08T07:40:11;99414.22;;;31.94;24.08
75895;BME280;64573;50.328;15.014;2023-07-08T07:42:43;99424.28;;;30.23;25.56
75895;BME280;64573;50.328;15.014;2023-07-08T07:45:09;99420.50;;;31.72;25.32
75895;BME280;64573;50.328;15.014;2023-07-08T07:47:35;99420.25;;;30.99;26.12
75895;BME280;64573;50.328;15.014;2023-07-08T07:50:02;99414.16;;;29.94;26.08
75895;BME280;64573;50.328;15.014;2023-07-08T07:52:28;99411.44;;;29.47;28.12
75895;BME280;64573;50.328;15.014;2023-07-08T07:54:54;99418.72;;;30.42;27.58
75895;BME280;64573;50.328;15.014;2023-07-08T07:57:20;99406.88;;;30.74;26.69
75895;BME280;64573;50.328;15.014;2023-07-08T07:59:46;99410.47;;;32.12;23.79
75895;BME280;64573;50.328;15.014;2023-07-08T08:02:11;99408.06;;;33.09;23.21
75895;BME280;64573;50.328;15.014;2023-07-08T08:04:37;99410.72;;;33.14;22.26
75895;BME280;64573;50.328;15.014;2023-07-08T08:07:02;99409.69;;;32.56;22.11
75895;BME280;64573;50.328;15.014;2023-07-08T08:09:28;99410.41;;;32.40;22.88
75895;BME280;64573;50.328;15.014;2023-07-08T08:11:53;99416.00;;;30.74;24.75
75895;BME280;64573;50.328;15.014;2023-07-08T08:14:20;99407.19;;;32.10;23.20
75895;BME280;64573;50.328;15.014;2023-07-08T08:16:45;99413.66;;;32.64;22.77
75895;BME280;64573;50.328;15.014;2023-07-08T08:19:11;99412.38;;;33.55;21.32
75895;BME280;64573;50.328;15.014;2023-07-08T08:21:36;99412.66;;;32.37;22.04
75895;BME280;64573;50.328;15.014;2023-07-08T08:24:02;99418.19;;;33.05;22.13
75895;BME280;64573;50.328;15.014;2023-07-08T08:26:27;99421.06;;;30.86;24.91
75895;BME280;64573;50.328;15.014;2023-07-08T08:28:53;99420.94;;;31.24;24.66
75895;BME280;64573;50.328;15.014;2023-07-08T08:31:19;99410.59;;;32.29;23.40
75895;BME280;64573;50.328;15.014;2023-07-08T08:33:44;99408.84;;;33.01;22.75
75895;BME280;64573;50.328;15.014;2023-07-08T08:36:09;99408.56;;;33.42;21.35
75895;BME280;64573;50.328;15.014;2023-07-08T08:38:35;99416.91;;;34.34;21.20
75895;BME280;64573;50.328;15.014;2023-07-08T08:41:09;99417.75;;;33.11;21.01
75895;BME280;64573;50.328;15.014;2023-07-08T08:43:38;99408.44;;;33.47;21.49
75895;BME280;64573;50.328;15.014;2023-07-08T08:48:55;99416.22;;;32.74;22.17
75895;BME280;64573;50.328;15.014;2023-07-08T08:51:22;99411.75;;;33.75;20.88
75895;BME280;64573;50.328;15.014;2023-07-08T08:53:52;99410.34;;;34.64;19.97
75895;BME280;64573;50.328;15.014;2023-07-08T08:56:24;99411.84;;;34.36;19.55
75895;BME280;64573;50.328;15.014;2023-07-08T09:06:59;99402.78;;;31.45;23.50
75895;BME280;64573;50.328;15.014;2023-07-08T09:09:36;99394.34;;;30.44;24.86
75895;BME280;64573;50.328;15.014;2023-07-08T09:12:05;99392.66;;;32.72;22.69
75895;BME280;64573;50.328;15.014;2023-07-08T09:14:35;99389.53;;;34.62;19.84
75895;BME280;64573;50.328;15.014;2023-07-08T09:19:56;99393.34;;;35.13;19.56
75895;BME280;64573;50.328;15.014;2023-07-08T09:25:22;99389.56;;;34.01;20.43
75895;BME280;64573;50.328;15.014;2023-07-08T09:27:49;99393.16;;;34.53;19.47
75895;BME280;64573;50.328;15.014;2023-07-08T09:30:18;99387.03;;;34.95;18.93
75895;BME280;64573;50.328;15.014;2023-07-08T09:32:46;99386.47;;;33.45;20.80
75895;BME280;64573;50.328;15.014;2023-07-08T09:37:38;99383.09;;;30.73;24.91
75895;BME280;64573;50.328;15.014;2023-07-08T09:40:21;99380.47;;;30.11;25.16
75895;BME280;64573;50.328;15.014;2023-07-08T09:42:50;99381.13;;;29.84;25.56
75895;BME280;64573;50.328;15.014;2023-07-08T09:45:20;99375.22;;;31.49;23.23
75895;BME280;64573;50.328;15.014;2023-07-08T09:47:46;99376.75;;;32.86;22.04
75895;BME280;64573;50.328;15.014;2023-07-08T09:50:22;99377.59;;;31.55;21.84
75895;BME280;64573;50.328;15.014;2023-07-08T09:52:51;99375.25;;;32.57;21.24
75895;BME280;64573;50.328;15.014;2023-07-08T09:55:17;99379.09;;;33.01;20.36
75895;BME280;64573;50.328;15.014;2023-07-08T09:57:44;99365.13;;;33.63;18.98
75895;BME280;64573;50.328;15.014;2023-07-08T10:00:14;99374.47;;;33.85;19.93
75895;BME280;64573;50.328;15.014;2023-07-08T10:05:18;99367.53;;;33.47;20.57
75895;BME280;64573;50.328;15.014;2023-07-08T10:07:46;99367.56;;;32.54;20.24
75895;BME280;64573;50.328;15.014;2023-07-08T10:10:25;99367.56;;;31.46;21.32
75895;BME280;64573;50.328;15.014;2023-07-08T10:13:33;99366.94;;;31.99;21.94
75895;BME280;64573;50.328;15.014;2023-07-08T10:16:23;99364.84;;;33.91;19.19
75895;BME280;64573;50.328;15.014;2023-07-08T10:18:49;99368.81;;;34.97;18.04
75895;BME280;64573;50.328;15.014;2023-07-08T10:26:29;99359.97;;;35.84;16.74
75895;BME280;64573;50.328;15.014;2023-07-08T10:37:35;99347.38;;;36.73;16.45
75895;BME280;64573;50.328;15.014;2023-07-08T10:45:53;99336.91;;;31.78;22.47
75895;BME280;64573;50.328;15.014;2023-07-08T10:51:09;99328.88;;;32.35;20.39
75895;BME280;64573;50.328;15.014;2023-07-08T10:56:21;99326.22;;;33.24;19.07
75895;BME280;64573;50.328;15.014;2023-07-08T11:06:57;99323.78;;;36.17;16.12
75895;BME280;64573;50.328;15.014;2023-07-08T11:09:35;99324.78;;;35.20;16.69
75895;BME280;64573;50.328;15.014;2023-07-08T11:14:42;99322.34;;;36.77;16.00
75895;BME280;64573;50.328;15.014;2023-07-08T11:22:09;99319.22;;;35.20;17.02
75895;BME280;64573;50.328;15.014;2023-07-08T11:24:47;99312.66;;;32.51;19.62
75895;BME280;64573;50.328;15.014;2023-07-08T11:32:21;99293.16;;;32.43;20.10
75895;BME280;64573;50.328;15.014;2023-07-08T11:34:50;99308.81;;;32.61;20.06
75895;BME280;64573;50.328;15.014;2023-07-08T11:39:44;99297.38;;;31.73;20.23
75895;BME280;64573;50.328;15.014;2023-07-08T11:45:32;99295.69;;;33.32;18.83
75895;BME280;64573;50.328;15.014;2023-07-08T11:48:19;99297.19;;;34.25;17.66
75895;BME280;64573;50.328;15.014;2023-07-08T11:50:47;99290.44;;;35.79;16.76
75895;BME280;64573;50.328;15.014;2023-07-08T11:55:55;99284.06;;;37.14;16.26
75895;BME280;64573;50.328;15.014;2023-07-08T11:58:26;99296.03;;;37.27;15.54
75895;BME280;64573;50.328;15.014;2023-07-08T12:03:38;99291.78;;;37.70;15.02
75895;BME280;64573;50.328;15.014;2023-07-08T12:06:44;99290.75;;;33.20;19.11
75895;BME280;64573;50.328;15.014;2023-07-08T12:09:38;99285.69;;;35.58;17.41
75895;BME280;64573;50.328;15.014;2023-07-08T12:12:16;99287.59;;;32.96;18.23
75895;BME280;64573;50.328;15.014;2023-07-08T12:14:44;99274.41;;;33.19;18.03
75895;BME280;64573;50.328;15.014;2023-07-08T12:17:14;99281.00;;;33.75;18.55
75895;BME280;64573;50.328;15.014;2023-07-08T12:19:42;99275.16;;;33.94;18.88
75895;BME280;64573;50.328;15.014;2023-07-08T12:22:10;99262.31;;;31.77;21.12
75895;BME280;64573;50.328;15.014;2023-07-08T12:24:37;99267.66;;;32.32;20.00
75895;BME280;64573;50.328;15.014;2023-07-08T12:27:03;99266.75;;;34.11;18.38
75895;BME280;64573;50.328;15.014;2023-07-08T12:29:29;99270.97;;;35.91;16.31
75895;BME280;64573;50.328;15.014;2023-07-08T12:31:54;99270.13;;;33.04;18.39
75895;BME280;64573;50.328;15.014;2023-07-08T12:34:20;99265.28;;;33.88;18.43
75895;BME280;64573;50.328;15.014;2023-07-08T12:36:46;99263.81;;;35.10;16.99
75895;BME280;64573;50.328;15.014;2023-07-08T12:39:14;99264.03;;;35.76;16.42
75895;BME280;64573;50.328;15.014;2023-07-08T12:41:42;99259.88;;;35.61;15.98
75895;BME280;64573;50.328;15.014;2023-07-08T12:44:16;99263.88;;;36.72;15.70
75895;BME280;64573;50.328;15.014;2023-07-08T12:46:43;99262.25;;;36.83;15.34
75895;BME280;64573;50.328;15.014;2023-07-08T12:49:09;99256.22;;;36.93;15.08
75895;BME280;64573;50.328;15.014;2023-07-08T12:51:34;99257.28;;;36.89;15.38
75895;BME280;64573;50.328;15.014;2023-07-08T12:53:59;99252.38;;;36.86;15.63
75895;BME280;64573;50.328;15.014;2023-07-08T12:56:25;99261.44;;;37.19;14.75
75895;BME280;64573;50.328;15.014;2023-07-08T12:58:53;99255.78;;;35.38;16.65
75895;BME280;64573;50.328;15.014;2023-07-08T13:01:21;99243.69;;;34.02;18.24
75895;BME280;64573;50.328;15.014;2023-07-08T13:03:50;99246.34;;;35.72;16.29
75895;BME280;64573;50.328;15.014;2023-07-08T13:06:21;99245.28;;;35.64;16.63
75895;BME280;64573;50.328;15.014;2023-07-08T13:08:48;99247.53;;;36.50;16.12
75895;BME280;64573;50.328;15.014;2023-07-08T13:11:15;99236.72;;;36.03;16.27
75895;BME280;64573;50.328;15.014;2023-07-08T13:13:49;99246.16;;;35.27;17.72
75895;BME280;64573;50.328;15.014;2023-07-08T13:16:16;99238.50;;;35.86;16.35
75895;BME280;64573;50.328;15.014;2023-07-08T13:18:42;99246.16;;;36.10;16.31
75895;BME280;64573;50.328;15.014;2023-07-08T13:21:14;99238.47;;;35.53;16.90
75895;BME280;64573;50.328;15.014;2023-07-08T13:23:40;99240.44;;;35.02;18.17
75895;BME280;64573;50.328;15.014;2023-07-08T13:26:17;99228.72;;;36.71;16.04
75895;BME280;64573;50.328;15.014;2023-07-08T13:28:44;99236.94;;;37.53;15.26
75895;BME280;64573;50.328;15.014;2023-07-08T13:31:22;99232.81;;;36.16;16.09
75895;BME280;64573;50.328;15.014;2023-07-08T13:33:50;99223.88;;;35.06;16.95
75895;BME280;64573;50.328;15.014;2023-07-08T13:36:32;99237.75;;;35.77;16.40
75895;BME280;64573;50.328;15.014;2023-07-08T13:39:01;99234.69;;;35.91;16.18
75895;BME280;64573;50.328;15.014;2023-07-08T13:41:27;99238.25;;;37.31;14.98
75895;BME280;64573;50.328;15.014;2023-07-08T13:43:52;99237.09;;;38.44;14.90
75895;BME280;64573;50.328;15.014;2023-07-08T13:48:51;99230.53;;;37.52;14.38
75895;BME280;64573;50.328;15.014;2023-07-08T13:51:22;99229.44;;;34.68;18.21
75895;BME280;64573;50.328;15.014;2023-07-08T13:53:51;99224.13;;;34.45;17.04
75895;BME280;64573;50.328;15.014;2023-07-08T13:56:22;99222.63;;;34.86;17.73
75895;BME280;64573;50.328;15.014;2023-07-08T13:58:50;99226.13;;;32.89;19.49
75895;BME280;64573;50.328;15.014;2023-07-08T14:01:22;99216.13;;;34.44;19.35
75895;BME280;64573;50.328;15.014;2023-07-08T14:03:49;99222.72;;;36.36;15.76
75895;BME280;64573;50.328;15.014;2023-07-08T14:08:42;99224.19;;;36.09;16.40
75895;BME280;64573;50.328;15.014;2023-07-08T14:11:08;99231.63;;;35.84;17.18
75895;BME280;64573;50.328;15.014;2023-07-08T14:13:34;99231.41;;;35.26;17.11
75895;BME280;64573;50.328;15.014;2023-07-08T14:16:00;99220.09;;;36.52;16.25
75895;BME280;64573;50.328;15.014;2023-07-08T14:18:26;99235.00;;;37.69;14.59
75895;BME280;64573;50.328;15.014;2023-07-08T14:20:51;99228.63;;;38.56;13.71
75895;BME280;64573;50.328;15.014;2023-07-08T14:23:17;99232.09;;;37.13;14.42
75895;BME280;64573;50.328;15.014;2023-07-08T14:25:44;99220.31;;;36.47;15.45
75895;BME280;64573;50.328;15.014;2023-07-08T14:28:09;99224.94;;;35.43;16.61